Time;durP1;ratioP1;P1;durP2;ratioP2;P2;SDS_P1;SDS_P2;PMS_P1;PMS_P2;Temp;Humidity;BMP_temperature;BMP_pressure;BME280_temperature;BME280_humidity;BME280_pressure;Samples;Min_cycle;Max_cycle;Signal;HPM_P1;HPM_P2
2023/10/10 00:01:18;;;;;;;14.43;4.72;;;23.00;99.90;;;;;;5049881;28;20025;-71
2023/10/10 00:03:45;;;;;;;20.05;3.70;;;23.00;99.90;;;;;;5032766;28;20037;-71
2023/10/10 00:06:13;;;;;;;10.82;3.55;;;23.00;99.90;;;;;;5049859;28;20033;-71
2023/10/10 00:08:41;;;;;;;12.57;3.78;;;23.00;99.90;;;;;;5050415;28;20350;-71
2023/10/10 00:11:18;;;;;;;16.95;4.07;;;22.90;99.90;;;;;;5071584;28;20021;-71
2023/10/10 00:13:46;;;;;;;13.48;3.42;;;22.90;99.90;;;;;;5071332;28;20500;-72
2023/10/10 00:16:19;;;;;;;16.48;3.97;;;22.90;99.90;;;;;;5071658;28;20020;-71
2023/10/10 00:18:48;;;;;;;11.38;3.20;;;22.90;99.90;;;;;;5071433;28;20037;-72
2023/10/10 00:21:23;;;;;;;14.80;3.58;;;22.90;99.90;;;;;;5053254;28;20017;-71
2023/10/10 00:23:55;;;;;;;11.60;3.25;;;22.90;99.90;;;;;;5071754;28;20528;-71
2023/10/10 00:26:26;;;;;;;14.93;3.38;;;22.90;99.90;;;;;;5071840;28;20093;-72
2023/10/10 00:28:55;;;;;;;11.43;3.80;;;22.80;99.90;;;;;;5087177;28;20027;-71
2023/10/10 00:31:26;;;;;;;14.13;3.60;;;22.80;99.90;;;;;;5091293;28;20456;-70
2023/10/10 00:33:54;;;;;;;17.17;3.95;;;22.80;99.90;;;;;;5091978;28;20483;-70
2023/10/10 00:36:23;;;;;;;11.50;3.60;;;22.80;99.90;;;;;;5073375;28;20031;-70
2023/10/10 00:38:50;;;;;;;12.82;3.75;;;22.90;99.90;;;;;;5091264;28;20529;-71
2023/10/10 00:41:16;;;;;;;14.63;3.63;;;22.90;99.90;;;;;;5095831;28;20116;-71
2023/10/10 00:43:43;;;;;;;12.05;3.47;;;22.90;99.90;;;;;;5095642;28;20024;-73
2023/10/10 00:46:12;;;;;;;10.80;3.28;;;22.80;99.90;;;;;;5095932;28;20020;-71
2023/10/10 00:48:38;;;;;;;18.67;3.22;;;22.80;99.90;;;;;;5095561;28;20020;-71
2023/10/10 00:51:20;;;;;;;12.35;3.85;;;22.80;99.90;;;;;;5095544;28;20028;-73
2023/10/10 00:53:55;;;;;;;13.88;3.35;;;22.80;99.90;;;;;;5095706;28;20039;-71
2023/10/10 00:56:21;;;;;;;13.00;3.42;;;22.80;99.90;;;;;;5095308;28;20024;-72
2023/10/10 00:58:48;;;;;;;;;;;22.80;99.90;;;;;;5095587;28;20233;-72
2023/10/10 01:01:14;;;;;;;15.25;3.72;;;22.80;99.90;;;;;;5095313;28;19991;-73
2023/10/10 01:03:46;;;;;;;14.80;3.47;;;22.80;99.90;;;;;;5095129;28;20039;-69
2023/10/10 01:06:25;;;;;;;12.10;2.88;;;22.80;99.90;;;;;;5076784;28;20027;-70
2023/10/10 01:09:08;;;;;;;12.82;2.97;;;22.80;99.90;;;;;;5095322;28;20029;-71
2023/10/10 01:11:35;;;;;;;17.33;3.72;;;22.80;99.90;;;;;;5094892;28;20100;-72
2023/10/10 01:14:01;;;;;;;9.95;3.70;;;22.90;99.90;;;;;;5095106;28;20036;-70
2023/10/10 01:16:27;;;;;;;11.63;3.42;;;22.90;99.90;;;;;;5076654;28;20161;-71
2023/10/10 01:18:59;;;;;;;15.93;3.50;;;22.90;99.90;;;;;;5094844;28;20307;-71
2023/10/10 01:21:43;;;;;;;12.60;3.40;;;22.80;99.90;;;;;;5095370;28;20024;-71
2023/10/10 01:24:15;;;;;;;13.35;3.92;;;22.80;99.90;;;;;;5095033;28;20020;-71
2023/10/10 01:26:51;;;;;;;16.05;4.57;;;22.80;99.90;;;;;;5095229;28;20048;-71
2023/10/10 01:29:26;;;;;;;18.25;3.92;;;22.90;99.90;;;;;;5094454;28;20027;-71
2023/10/10 01:31:53;;;;;;;18.80;3.47;;;22.90;99.90;;;;;;5095162;28;20059;-72
2023/10/10 01:34:39;;;;;;;13.88;3.45;;;22.90;99.90;;;;;;5076135;28;20170;-71
2023/10/10 01:37:29;;;;;;;14.75;2.97;;;22.90;99.90;;;;;;5094617;28;20020;-71
2023/10/10 01:40:23;;;;;;;16.80;5.80;;;22.90;99.90;;;;;;5094874;28;20089;-70
2023/10/10 01:42:59;;;;;;;14.18;4.35;;;22.90;99.90;;;;;;5093791;28;20039;-71
2023/10/10 01:45:29;;;;;;;13.40;3.17;;;22.90;99.90;;;;;;5094907;28;20076;-71
2023/10/10 01:47:57;;;;;;;14.27;3.42;;;22.90;99.90;;;;;;5094364;28;20074;-71
2023/10/10 01:50:26;;;;;;;12.32;3.83;;;22.90;99.90;;;;;;5093782;28;20031;-71
2023/10/10 01:52:56;;;;;;;13.80;3.63;;;23.00;99.90;;;;;;5094386;28;20480;-71
2023/10/10 01:55:26;;;;;;;10.38;3.00;;;23.00;99.90;;;;;;5094417;28;20065;-70
2023/10/10 01:57:52;;;;;;;17.10;4.15;;;23.00;99.90;;;;;;5094020;28;20117;-70
2023/10/10 02:02:52;;;;;;;13.23;3.40;;;22.90;99.90;;;;;;5094029;28;19904;-72
2023/10/10 02:08:11;;;;;;;11.23;3.20;;;22.80;99.90;;;;;;5093982;28;20035;-70
2023/10/10 02:10:43;;;;;;;11.63;3.53;;;22.80;99.90;;;;;;5094076;28;20023;-71
2023/10/10 02:13:11;;;;;;;16.15;3.35;;;22.80;99.90;;;;;;5093443;28;20519;-71
2023/10/10 02:15:39;;;;;;;13.52;2.85;;;22.80;99.90;;;;;;5093709;28;20027;-71
2023/10/10 02:18:23;;;;;;;12.25;2.90;;;22.70;99.90;;;;;;5093484;28;20032;-72
2023/10/10 02:20:50;;;;;;;16.98;3.47;;;22.70;99.90;;;;;;5075253;28;20114;-70
2023/10/10 02:23:30;;;;;;;14.52;3.83;;;22.80;99.90;;;;;;5093845;28;20027;-71
2023/10/10 02:26:02;;;;;;;18.52;3.42;;;22.70;99.90;;;;;;5094001;28;20043;-71
2023/10/10 02:29:16;;;;;;;10.93;3.30;;;22.70;99.90;;;;;;5093352;28;20423;-71
2023/10/10 02:31:19;;;;;;;11.90;2.97;;;22.70;99.90;;;;;;5082391;28;20024;-71
2023/10/10 02:33:51;;;;;;;15.02;3.42;;;22.70;99.90;;;;;;5093118;28;20218;-70
2023/10/10 02:36:30;;;;;;;9.57;3.30;;;22.70;99.90;;;;;;5093213;28;20028;-70
2023/10/10 02:39:26;;;;;;;15.23;3.22;;;22.60;99.90;;;;;;5093059;28;20055;-72
2023/10/10 02:41:59;;;;;;;16.33;3.08;;;22.60;99.90;;;;;;5093507;28;20053;-71
2023/10/10 02:47:01;;;;;;;14.68;3.47;;;22.50;99.90;;;;;;5093302;28;20027;-72
2023/10/10 02:51:56;;;;;;;13.88;3.08;;;22.50;99.90;;;;;;5093076;28;20032;-71
2023/10/10 02:56:58;;;;;;;9.65;3.10;;;22.50;99.90;;;;;;5093240;28;20021;-70
2023/10/10 02:59:31;;;;;;;10.70;3.53;;;22.50;99.90;;;;;;5074958;28;20039;-71
2023/10/10 03:01:59;;;;;;;11.30;3.33;;;22.50;99.90;;;;;;5092746;28;20035;-71
2023/10/10 03:07:29;;;;;;;13.38;3.22;;;22.50;99.90;;;;;;5050827;28;20131;-71
2023/10/10 03:12:41;;;;;;;12.82;3.20;;;22.60;99.90;;;;;;5093175;28;20530;-71
2023/10/10 03:15:28;;;;;;;13.48;3.35;;;22.60;99.90;;;;;;5092851;28;20457;-70
2023/10/10 03:21:07;;;;;;;16.05;3.55;;;22.60;99.90;;;;;;5093153;28;20077;-71
2023/10/10 03:23:53;;;;;;;15.43;3.47;;;22.50;99.90;;;;;;5093582;28;20416;-71
2023/10/10 03:26:51;;;;;;;11.07;2.90;;;22.50;99.90;;;;;;5094186;28;20032;-70
2023/10/10 03:29:11;;;;;;;13.57;3.22;;;22.60;99.90;;;;;;5093792;28;20444;-71
2023/10/10 03:31:47;;;;;;;15.82;3.53;;;22.50;99.90;;;;;;5094033;28;20499;-70
2023/10/10 03:36:44;;;;;;;13.27;3.53;;;22.50;99.90;;;;;;5093986;28;20085;-72
2023/10/10 03:39:41;;;;;;;14.65;3.45;;;22.50;99.90;;;;;;5093785;28;20048;-71
2023/10/10 05:23:51;;;;;;;22.10;3.25;;;23.50;99.90;;;;;;5092025;28;20057;-72
2023/10/10 05:26:19;;;;;;;;;;;23.50;99.90;;;;;;5076384;28;20064;-70
2023/10/10 05:28:46;;;;;;;14.23;3.03;;;23.50;99.90;;;;;;5095556;28;19908;-72
2023/10/10 05:31:17;;;;;;;18.23;2.97;;;23.50;99.90;;;;;;5077034;28;20032;-71
2023/10/10 05:33:44;;;;;;;14.77;3.03;;;23.60;99.90;;;;;;5095282;28;20134;-72
2023/10/10 05:36:13;;;;;;;12.05;2.90;;;23.70;99.90;;;;;;5076739;28;20027;-71
2023/10/10 05:38:39;;;;;;;12.00;3.03;;;23.70;99.90;;;;;;5094519;28;20135;-71
2023/10/10 05:41:12;;;;;;;21.75;4.10;;;24.00;99.90;;;;;;5094444;28;20489;-71
2023/10/10 05:43:39;;;;;;;18.17;3.60;;;24.30;99.90;;;;;;5094141;28;20382;-72
2023/10/10 05:46:06;;;;;;;17.40;3.33;;;24.70;99.50;;;;;;5094562;28;20111;-71
2023/10/10 05:48:34;;;;;;;16.25;2.95;;;25.10;99.10;;;;;;5094334;28;20177;-70
2023/10/10 05:51:01;;;;;;;13.43;3.15;;;25.30;98.90;;;;;;5075591;28;20028;-72
2023/10/10 05:53:27;;;;;;;15.93;2.88;;;25.90;98.80;;;;;;5093930;28;20036;-69
2023/10/10 05:55:58;;;;;;;15.07;3.17;;;26.70;98.30;;;;;;5093459;28;20527;-71
2023/10/10 05:58:28;;;;;;;13.75;2.92;;;26.50;97.70;;;;;;5093139;28;20098;-71
2023/10/10 06:00:54;;;;;;;13.85;3.10;;;27.00;97.40;;;;;;5093981;28;20097;-72
2023/10/10 06:03:21;;;;;;;20.40;3.50;;;27.50;97.00;;;;;;5094519;28;20024;-72
2023/10/10 06:05:49;;;;;;;17.48;3.42;;;28.30;96.70;;;;;;5093747;28;20083;-71
2023/10/10 06:08:16;;;;;;;13.85;3.97;;;28.70;95.60;;;;;;5093498;28;20108;-71
2023/10/10 06:10:43;;;;;;;15.05;2.97;;;29.00;95.50;;;;;;5092777;28;20089;-72
2023/10/10 06:13:11;;;;;;;18.33;3.65;;;29.00;95.50;;;;;;5074610;28;20060;-72
2023/10/10 06:15:37;;;;;;;15.07;3.55;;;29.90;95.00;;;;;;5093638;28;20028;-71
2023/10/10 06:18:13;;;;;;;20.45;3.58;;;30.50;94.10;;;;;;5094392;28;20020;-70
2023/10/10 06:20:43;;;;;;;24.65;3.70;;;31.60;93.50;;;;;;5094599;28;20039;-71
2023/10/10 06:23:20;;;;;;;22.30;3.50;;;32.20;92.50;;;;;;5094030;28;20390;-72
2023/10/10 06:25:59;;;;;;;13.63;3.30;;;32.50;91.90;;;;;;5093875;28;20111;-71
2023/10/10 06:28:35;;;;;;;23.17;3.55;;;33.30;90.90;;;;;;5093543;28;20048;-72
2023/10/10 06:31:02;;;;;;;;;;;33.30;90.40;;;;;;5094216;28;20028;-71
2023/10/10 06:33:28;;;;;;;20.13;3.20;;;33.70;89.00;;;;;;5093855;28;20352;-72
2023/10/10 06:41:46;;;;;;;16.27;3.65;;;33.50;87.80;;;;;;5093291;28;20039;-71
2023/10/10 06:44:13;;;;;;;15.15;3.42;;;32.70;86.80;;;;;;5075165;28;20113;-71
2023/10/10 06:46:46;;;;;;;18.70;3.50;;;32.90;87.00;;;;;;5093733;28;20107;-71
2023/10/10 06:49:13;;;;;;;12.98;3.20;;;33.60;86.50;;;;;;5093247;28;20020;-71
2023/10/10 06:51:42;;;;;;;23.42;3.67;;;34.60;85.30;;;;;;5074646;28;20384;-72
2023/10/10 06:54:09;;;;;;;17.52;3.70;;;34.90;83.00;;;;;;5093479;28;20039;-72
2023/10/10 06:56:45;;;;;;;25.75;3.63;;;34.90;81.30;;;;;;5074823;28;20382;-71
2023/10/10 06:59:20;;;;;;;16.85;3.47;;;34.90;80.60;;;;;;5092925;28;20032;-71
2023/10/10 07:01:47;;;;;;;18.70;5.57;;;35.20;80.20;;;;;;5093027;28;20028;-72
2023/10/10 07:04:14;;;;;;;15.73;3.40;;;35.70;79.70;;;;;;5092486;28;20028;-71
2023/10/10 07:06:45;;;;;;;14.95;3.20;;;35.20;77.40;;;;;;5093437;28;20020;-72
2023/10/10 07:09:14;;;;;;;19.95;3.13;;;34.60;77.70;;;;;;5092821;28;20032;-72
2023/10/10 07:11:44;;;;;;;17.00;4.18;;;34.90;76.60;;;;;;5092970;28;20020;-72
2023/10/10 07:14:11;;;;;;;13.70;3.30;;;33.40;78.30;;;;;;5092598;28;20058;-72
2023/10/10 07:16:42;;;;;;;22.30;3.70;;;34.30;78.00;;;;;;5092832;28;20038;-72
2023/10/10 07:19:19;;;;;;;19.42;3.88;;;34.10;77.20;;;;;;5092813;28;20136;-72
2023/10/10 07:21:47;;;;;;;15.23;3.58;;;33.30;79.20;;;;;;5093307;28;20356;-72
2023/10/10 07:24:15;;;;;;;17.63;3.50;;;32.20;78.30;;;;;;5074207;28;20031;-72
2023/10/10 07:26:58;;;;;;;14.70;3.63;;;30.80;81.50;;;;;;5092906;28;20093;-73
2023/10/10 07:29:57;;;;;;;18.30;3.42;;;30.00;83.00;;;;;;5093066;28;20081;-70
2023/10/10 07:32:17;;;;;;;14.52;3.55;;;30.20;84.30;;;;;;5092077;28;20441;-71
2023/10/10 07:34:51;;;;;;;22.50;3.60;;;30.30;83.10;;;;;;5092915;28;20539;-73
2023/10/10 07:37:18;;;;;;;15.63;3.42;;;30.50;84.10;;;;;;5092703;28;20450;-72
2023/10/10 07:42:30;;;;;;;16.47;3.73;;;30.10;83.70;;;;;;5092656;28;20120;-72
2023/10/10 07:45:13;;;;;;;15.27;3.30;;;30.20;84.20;;;;;;5091973;28;20032;-71
2023/10/10 07:50:27;;;;;;;17.60;3.50;;;30.10;84.70;;;;;;5091478;28;20074;-72
2023/10/10 07:52:56;;;;;;;16.70;3.50;;;30.30;84.30;;;;;;5091570;28;20028;-71
2023/10/10 07:55:22;;;;;;;20.52;3.75;;;30.10;84.50;;;;;;5091842;28;20050;-72
2023/10/10 07:58:06;;;;;;;14.43;3.22;;;30.20;84.10;;;;;;5091374;28;20426;-74
2023/10/10 08:00:35;;;;;;;12.32;3.10;;;30.10;84.70;;;;;;5090941;28;20028;-71
2023/10/10 08:03:12;;;;;;;16.10;3.58;;;30.20;84.40;;;;;;5091074;28;20064;-72
2023/10/10 08:05:42;;;;;;;17.30;3.72;;;30.30;84.80;;;;;;5091116;28;20039;-72
2023/10/10 08:08:13;;;;;;;16.15;3.70;;;30.40;84.50;;;;;;5091109;28;20028;-72
2023/10/10 08:10:39;;;;;;;15.43;3.45;;;30.40;84.40;;;;;;5091320;28;20028;-72
2023/10/10 08:13:14;;;;;;;10.68;2.95;;;30.20;84.90;;;;;;5090965;28;20042;-72
2023/10/10 08:15:49;;;;;;;13.85;3.22;;;30.10;84.90;;;;;;5090762;28;20422;-72
2023/10/10 08:23:27;;;;;;;16.23;3.33;;;30.00;84.60;;;;;;5091379;28;20271;-72
2023/10/10 08:25:53;;;;;;;14.23;3.22;;;30.20;84.60;;;;;;5091278;28;20026;-70
2023/10/10 08:28:22;;;;;;;20.23;3.00;;;30.30;84.20;;;;;;5091406;28;20024;-72
2023/10/10 08:30:49;;;;;;;15.07;3.38;;;30.70;84.50;;;;;;5091341;28;20421;-72
2023/10/10 08:33:16;;;;;;;12.27;3.35;;;30.50;82.80;;;;;;5073131;28;20381;-72
2023/10/10 08:35:42;;;;;;;14.27;3.47;;;30.50;83.60;;;;;;5091463;28;20099;-71
2023/10/10 08:38:19;;;;;;;18.13;3.05;;;30.60;83.50;;;;;;5091383;28;20044;-71
2023/10/10 08:40:56;;;;;;;13.77;3.63;;;30.90;83.40;;;;;;5091613;28;20482;-72
2023/10/10 08:43:26;;;;;;;12.70;3.17;;;30.80;82.70;;;;;;5092035;28;20024;-73
2023/10/10 08:45:56;;;;;;;12.30;2.90;;;30.80;82.90;;;;;;5091453;28;20017;-70
2023/10/10 08:48:26;;;;;;;20.27;3.40;;;30.90;82.50;;;;;;5091280;28;20028;-71
2023/10/10 08:51:03;;;;;;;15.35;3.15;;;31.10;83.80;;;;;;5072800;28;20024;-71
2023/10/10 08:53:38;;;;;;;17.15;2.90;;;31.40;82.90;;;;;;5072481;28;20123;-72
2023/10/10 08:56:04;;;;;;;13.13;3.00;;;31.20;81.90;;;;;;5091195;28;20016;-72
2023/10/10 08:58:31;;;;;;;12.38;3.20;;;30.90;81.00;;;;;;5090876;28;20043;-72
2023/10/10 09:01:00;;;;;;;12.98;2.97;;;30.90;82.30;;;;;;5093012;28;20024;-71
2023/10/10 09:03:28;;;;;;;19.83;3.58;;;30.70;81.30;;;;;;5095214;28;20202;-72
2023/10/10 09:05:55;;;;;;;14.55;3.42;;;30.40;81.70;;;;;;5094761;28;20077;-71
2023/10/10 09:08:26;;;;;;;14.52;2.92;;;30.80;81.70;;;;;;5094632;28;20032;-72
2023/10/10 09:10:58;;;;;;;12.65;3.25;;;30.70;80.60;;;;;;5094483;28;20024;-72
2023/10/10 09:13:25;;;;;;;15.07;3.28;;;30.90;81.20;;;;;;5076034;28;20074;-73
2023/10/10 09:15:56;;;;;;;11.75;2.97;;;30.80;80.30;;;;;;5094391;28;20020;-72
2023/10/10 09:18:23;;;;;;;9.80;2.85;;;31.00;80.90;;;;;;5094763;28;20031;-71
2023/10/10 09:20:53;;;;;;;9.02;2.90;;;31.20;80.10;;;;;;5094643;28;20217;-71
2023/10/10 09:23:24;;;;;;;14.38;3.38;;;30.90;80.10;;;;;;5094550;28;20031;-72
2023/10/10 09:26:29;;;;;;;12.95;3.33;;;30.90;80.50;;;;;;5094843;28;20051;-72
2023/10/10 09:28:58;;;;;;;15.90;3.33;;;30.90;80.40;;;;;;5094181;28;20147;-70
2023/10/10 09:31:30;;;;;;;20.67;3.33;;;30.70;82.50;;;;;;5094108;28;20031;-72
2023/10/10 09:33:57;;;;;;;17.77;3.60;;;30.60;86.10;;;;;;5094264;28;20028;-73
2023/10/10 09:36:27;;;;;;;18.23;3.67;;;30.10;90.50;;;;;;5094169;28;20048;-73
2023/10/10 09:39:14;;;;;;;14.23;3.25;;;29.80;90.70;;;;;;5094093;28;20048;-72
2023/10/10 09:47:43;;;;;;;15.73;3.85;;;30.20;87.30;;;;;;5094269;28;20156;-72
2023/10/10 09:52:58;;;;;;;15.02;3.28;;;30.10;87.30;;;;;;5093842;28;20034;-71
2023/10/10 09:58:24;;;;;;;13.77;4.20;;;30.20;86.30;;;;;;5093704;28;20051;-72
2023/10/10 10:00:52;;;;;;;13.85;4.50;;;30.30;85.80;;;;;;5093729;28;20031;-72
2023/10/10 10:09:17;;;;;;;20.25;4.30;;;30.60;86.40;;;;;;5093660;28;20051;-71
2023/10/10 10:12:19;;;;;;;19.70;3.35;;;30.60;86.90;;;;;;5060699;28;20026;-72
2023/10/10 10:14:59;;;;;;;18.20;3.10;;;30.60;86.70;;;;;;5092906;28;20445;-72
2023/10/10 10:17:53;;;;;;;20.92;3.83;;;30.60;85.90;;;;;;5093453;28;20448;-71
2023/10/10 10:23:33;;;;;;;14.15;3.10;;;30.70;86.70;;;;;;5078550;28;20059;-73
2023/10/10 10:26:10;;;;;;;16.90;3.25;;;31.00;84.80;;;;;;5074796;28;20047;-71
2023/10/10 10:28:45;;;;;;;22.27;3.75;;;30.80;84.30;;;;;;5093321;28;20441;-72
2023/10/10 10:31:27;;;;;;;14.55;3.25;;;30.60;85.90;;;;;;5093498;28;20012;-71
2023/10/10 10:34:31;;;;;;;20.77;3.97;;;30.80;85.40;;;;;;5093146;28;20032;-71
2023/10/10 10:37:42;;;;;;;16.48;3.75;;;31.20;84.20;;;;;;5093370;28;20156;-71
2023/10/10 10:43:03;;;;;;;14.82;3.08;;;31.00;84.40;;;;;;5093346;28;20525;-71
2023/10/10 10:45:37;;;;;;;21.08;3.20;;;31.40;84.50;;;;;;5074670;28;20440;-72
2023/10/10 10:48:28;;;;;;;14.80;3.45;;;31.40;84.00;;;;;;5093037;28;20031;-71
2023/10/10 10:50:58;;;;;;;21.83;4.10;;;31.30;85.10;;;;;;5074579;28;20114;-71
2023/10/10 10:53:35;;;;;;;17.40;3.47;;;31.10;85.00;;;;;;5093336;28;20035;-71
2023/10/10 11:01:30;;;;;;;19.75;3.97;;;31.20;87.20;;;;;;5093316;28;20221;-72
2023/10/10 11:03:57;;;;;;;19.80;3.85;;;31.50;85.50;;;;;;5074692;28;20081;-71
2023/10/10 11:06:26;;;;;;;;;;;31.50;86.10;;;;;;5093284;28;20031;-71
2023/10/10 11:08:52;;;;;;;21.20;3.80;;;31.80;86.70;;;;;;5093111;28;19904;-72
2023/10/10 11:11:40;;;;;;;19.45;3.70;;;31.80;86.80;;;;;;5093582;28;20107;-72
2023/10/10 11:14:18;;;;;;;21.13;3.72;;;31.90;87.60;;;;;;5092462;28;20040;-72
2023/10/10 11:16:46;;;;;;;18.08;3.45;;;31.90;88.60;;;;;;5092549;28;20023;-73
2023/10/10 11:22:00;;;;;;;25.13;3.83;;;32.00;90.70;;;;;;5093242;28;20069;-72
2023/10/10 11:24:29;;;;;;;20.48;3.90;;;32.10;90.90;;;;;;5092449;28;20063;-71
2023/10/10 11:30:00;;;;;;;22.40;3.50;;;31.80;91.40;;;;;;5093326;28;20035;-72
2023/10/10 11:32:36;;;;;;;29.13;3.47;;;31.60;92.20;;;;;;5093481;28;20020;-71
2023/10/10 11:35:22;;;;;;;23.00;4.00;;;31.70;92.80;;;;;;5074248;28;20024;-72
2023/10/10 11:37:59;;;;;;;18.98;3.70;;;31.80;93.20;;;;;;5092196;28;20040;-71
2023/10/10 11:42:56;;;;;;;19.30;3.72;;;32.20;91.70;;;;;;5092693;28;20028;-71
2023/10/10 11:45:27;;;;;;;17.33;3.42;;;32.50;91.10;;;;;;5092790;28;20046;-72
2023/10/10 11:48:00;;;;;;;17.17;3.42;;;32.60;90.00;;;;;;5092855;28;20048;-72
2023/10/10 11:50:45;;;;;;;18.65;3.83;;;32.70;90.20;;;;;;5093185;28;20024;-73
2023/10/10 11:53:19;;;;;;;17.88;3.35;;;32.50;90.10;;;;;;5092696;28;20085;-72
2023/10/10 11:55:47;;;;;;;23.08;3.95;;;32.40;88.90;;;;;;5074450;28;20036;-72
2023/10/10 11:58:19;;;;;;;22.63;3.80;;;32.40;89.70;;;;;;5092597;28;20063;-72
2023/10/10 12:00:59;;;;;;;17.35;3.55;;;32.20;90.50;;;;;;5092432;28;20552;-72
2023/10/10 12:04:08;;;;;;;23.40;3.80;;;32.60;90.10;;;;;;5092892;28;20034;-73
2023/10/10 12:06:19;;;;;;;20.80;3.80;;;32.60;88.50;;;;;;5090590;28;20411;-73
2023/10/10 12:08:50;;;;;;;19.85;3.08;;;32.70;86.10;;;;;;5092870;28;20035;-70
2023/10/10 12:11:20;;;;;;;20.48;3.35;;;32.80;83.80;;;;;;5074545;28;20140;-71
2023/10/10 12:13:50;;;;;;;20.13;3.90;;;32.80;83.40;;;;;;5092872;28;20040;-71
2023/10/10 12:16:17;;;;;;;20.88;3.60;;;32.80;82.90;;;;;;5093164;28;20051;-73
2023/10/10 12:18:49;;;;;;;29.15;3.10;;;33.00;83.30;;;;;;5093303;28;20092;-72
2023/10/10 12:21:20;;;;;;;13.60;3.22;;;32.90;81.40;;;;;;5093146;28;20032;-72
2023/10/10 12:23:55;;;;;;;25.38;3.25;;;32.40;80.80;;;;;;5074907;28;20052;-72
2023/10/10 12:26:22;;;;;;;16.88;3.50;;;32.10;77.80;;;;;;5093245;28;20490;-72
2023/10/10 12:28:52;;;;;;;16.17;3.47;;;32.10;80.20;;;;;;5092837;28;20103;-72
2023/10/10 12:31:22;;;;;;;17.80;3.17;;;32.10;78.40;;;;;;5075141;28;20122;-72
2023/10/10 12:33:49;;;;;;;13.80;3.20;;;32.50;75.60;;;;;;5093368;28;20434;-72
2023/10/10 12:36:16;;;;;;;15.90;2.70;;;32.50;74.70;;;;;;5099773;28;20535;-72
2023/10/10 12:38:42;;;;;;;13.95;2.88;;;32.40;74.70;;;;;;5099433;28;20048;-73
2023/10/10 12:41:13;;;;;;;;;;;32.30;74.30;;;;;;5100411;28;20020;-72
2023/10/10 12:43:39;;;;;;;10.85;3.22;;;32.50;74.10;;;;;;5099550;28;19939;-72
2023/10/10 12:46:09;;;;;;;;;;;32.60;74.20;;;;;;5099506;28;20123;-72
2023/10/10 12:48:41;;;;;;;16.83;3.40;;;32.60;72.90;;;;;;5099239;28;19927;-72
2023/10/10 12:51:11;;;;;;;13.95;3.00;;;32.60;73.20;;;;;;5099275;28;20063;-70
2023/10/10 12:53:43;;;;;;;18.02;3.10;;;32.50;72.10;;;;;;5080688;28;20069;-71
2023/10/10 12:56:16;;;;;;;12.18;3.25;;;32.70;72.10;;;;;;5099604;28;20024;-71
2023/10/10 12:58:51;;;;;;;17.90;3.88;;;32.50;72.80;;;;;;5099238;28;20031;-72
2023/10/10 13:01:23;;;;;;;18.42;3.38;;;32.80;73.90;;;;;;5080938;28;20020;-72
2023/10/10 13:03:50;;;;;;;17.05;3.63;;;32.70;79.10;;;;;;5099643;28;20321;-72
2023/10/10 13:06:16;;;;;;;17.60;3.42;;;32.50;80.40;;;;;;5099005;28;20047;-72
2023/10/10 13:08:54;;;;;;;14.30;3.45;;;31.70;82.30;;;;;;5099510;28;20051;-72
2023/10/10 13:11:32;;;;;;;21.15;3.65;;;31.60;83.50;;;;;;5099557;28;20112;-72
2023/10/10 13:14:09;;;;;;;16.50;3.60;;;31.30;86.10;;;;;;5098845;28;20044;-71
2023/10/10 13:19:12;;;;;;;12.85;3.22;;;31.30;85.90;;;;;;5099213;28;20028;-71
2023/10/10 13:21:42;;;;;;;14.45;3.03;;;31.00;86.20;;;;;;5099643;28;20040;-72
2023/10/10 13:24:13;;;;;;;19.73;3.65;;;30.90;86.80;;;;;;5099537;28;20031;-70
2023/10/10 13:26:41;;;;;;;21.83;3.17;;;31.10;90.40;;;;;;5080885;28;20078;-71
2023/10/10 13:29:08;;;;;;;24.58;4.28;;;31.20;91.10;;;;;;5098831;28;20103;-70
2023/10/10 13:31:35;;;;;;;18.42;3.65;;;31.40;91.40;;;;;;5080806;28;20028;-70
2023/10/10 13:34:01;;;;;;;;;;;31.00;92.50;;;;;;5081085;28;20149;-71
2023/10/10 13:36:28;;;;;;;17.42;3.80;;;30.40;92.70;;;;;;5099016;28;19904;-72
2023/10/10 13:38:58;;;;;;;;;;;30.50;94.10;;;;;;5099414;28;20047;-71
2023/10/10 13:41:29;;;;;;;18.65;3.05;;;30.60;94.10;;;;;;5099313;28;20009;-71
2023/10/10 13:44:02;;;;;;;19.00;3.50;;;30.70;94.40;;;;;;5099197;28;20016;-71
2023/10/10 13:46:40;;;;;;;16.17;3.67;;;30.20;95.30;;;;;;5096622;28;20460;-70
2023/10/10 13:49:08;;;;;;;18.08;3.63;;;30.20;96.10;;;;;;5096031;28;20232;-72
2023/10/10 13:51:40;;;;;;;23.05;3.38;;;29.80;97.10;;;;;;5095505;28;20107;-71
2023/10/10 13:54:07;;;;;;;16.27;3.53;;;29.80;97.90;;;;;;5095496;28;20039;-71
2023/10/10 13:56:33;;;;;;;17.48;3.30;;;29.90;98.50;;;;;;5076960;28;20066;-71
2023/10/10 13:59:00;;;;;;;14.70;3.17;;;29.80;98.90;;;;;;5076776;28;20109;-71
2023/10/10 14:03:56;;;;;;;24.20;4.28;;;30.10;99.70;;;;;;5095290;28;20024;-71
2023/10/10 14:06:26;;;;;;;23.08;3.72;;;30.10;99.90;;;;;;5095760;28;20020;-71
2023/10/10 14:08:57;;;;;;;16.35;3.20;;;29.70;99.90;;;;;;5095458;28;20020;-71
2023/10/10 14:11:24;;;;;;;15.68;3.40;;;29.50;99.90;;;;;;5094882;28;20031;-71
2023/10/10 14:13:51;;;;;;;;;;;29.20;99.90;;;;;;5095763;28;20033;-71
2023/10/10 14:16:18;;;;;;;18.02;3.55;;;28.50;99.90;;;;;;5076725;28;19903;-71
2023/10/10 14:18:47;;;;;;;21.27;3.55;;;28.70;99.90;;;;;;5095432;28;20380;-71
2023/10/10 14:21:16;;;;;;;16.45;3.72;;;28.80;99.90;;;;;;5076691;28;20024;-71
2023/10/10 14:23:44;;;;;;;18.85;3.50;;;28.80;99.90;;;;;;5094889;28;20124;-72
2023/10/10 14:26:25;;;;;;;15.32;3.67;;;29.00;99.90;;;;;;5076407;28;20055;-71
2023/10/10 14:28:52;;;;;;;20.83;3.75;;;29.10;99.90;;;;;;5094780;28;20472;-71
2023/10/10 14:31:21;;;;;;;17.48;3.53;;;29.30;99.90;;;;;;5094457;28;20120;-71
2023/10/10 14:33:48;;;;;;;22.10;6.18;;;29.50;99.90;;;;;;5094751;28;20502;-71
2023/10/10 14:36:14;;;;;;;14.77;3.70;;;29.50;99.90;;;;;;5095027;28;20020;-71
2023/10/10 14:38:50;;;;;;;11.20;4.25;;;29.60;99.90;;;;;;5094384;28;20056;-71
2023/10/10 14:41:32;;;;;;;21.20;4.45;;;29.60;99.90;;;;;;5095042;28;20020;-71
2023/10/10 14:44:01;;;;;;;20.67;4.90;;;29.60;99.90;;;;;;5094777;28;20479;-72
2023/10/10 14:46:32;;;;;;;12.23;3.10;;;29.80;99.20;;;;;;5076265;28;20391;-72
2023/10/10 14:49:06;;;;;;;19.50;3.50;;;29.90;91.50;;;;;;5094211;28;20372;-72
2023/10/10 14:51:34;;;;;;;22.92;4.18;;;30.00;91.10;;;;;;5094013;28;20024;-71
2023/10/10 14:54:07;;;;;;;39.00;4.80;;;30.20;85.00;;;;;;5075367;28;20148;-72
2023/10/10 14:56:38;;;;;;;20.55;3.83;;;30.30;85.00;;;;;;5094207;28;20098;-71
2023/10/10 14:59:06;;;;;;;12.70;3.28;;;30.50;80.50;;;;;;5092213;28;20027;-72
2023/10/10 15:01:35;;;;;;;15.95;3.97;;;30.50;92.30;;;;;;5094179;28;20020;-72
2023/10/10 15:04:06;;;;;;;17.02;3.78;;;30.30;95.40;;;;;;5093753;28;20026;-72
2023/10/10 15:06:33;;;;;;;17.88;3.50;;;30.10;89.60;;;;;;5093253;28;20025;-70
2023/10/10 15:09:00;;;;;;;10.65;2.92;;;30.30;93.80;;;;;;5093314;28;20024;-71
2023/10/10 15:11:28;;;;;;;13.02;3.20;;;30.00;91.40;;;;;;5093609;28;20032;-70
2023/10/10 15:13:56;;;;;;;14.13;3.13;;;29.90;87.90;;;;;;5093098;28;20052;-71
2023/10/10 15:16:23;;;;;;;13.15;2.92;;;30.00;83.60;;;;;;5092718;28;20468;-71
2023/10/10 15:18:53;;;;;;;15.07;2.70;;;30.20;86.10;;;;;;5093672;28;20115;-72
2023/10/10 15:21:32;;;;;;;17.27;3.25;;;30.10;95.10;;;;;;5076132;28;20062;-72
2023/10/10 15:24:14;;;;;;;15.45;3.08;;;29.80;90.50;;;;;;5093272;28;20032;-72
2023/10/10 15:26:48;;;;;;;14.90;3.40;;;29.80;90.00;;;;;;5093379;28;20043;-73
2023/10/10 15:29:16;;;;;;;13.77;3.20;;;29.60;91.00;;;;;;5074885;28;20068;-72
2023/10/10 15:31:42;;;;;;;17.27;3.47;;;29.50;91.70;;;;;;5093363;28;20028;-71
2023/10/10 15:34:19;;;;;;;12.60;2.95;;;29.40;88.40;;;;;;5093712;28;20059;-71
2023/10/10 15:36:45;;;;;;;13.70;3.65;;;29.40;90.30;;;;;;5093594;28;20020;-72
2023/10/10 15:39:12;;;;;;;12.43;3.08;;;29.40;89.50;;;;;;5093033;28;20051;-72
2023/10/10 15:41:42;;;;;;;11.07;2.97;;;29.30;84.80;;;;;;5093365;28;20024;-72
2023/10/10 15:44:12;;;;;;;30.80;3.90;;;29.40;83.20;;;;;;5093212;28;20038;-72
2023/10/10 15:46:38;;;;;;;11.52;3.00;;;29.40;80.80;;;;;;5074710;28;20028;-72
2023/10/10 15:49:09;;;;;;;;;;;29.40;80.20;;;;;;5093336;28;20387;-72
2023/10/10 15:51:37;;;;;;;15.80;2.97;;;29.40;79.60;;;;;;5074629;28;19904;-71
2023/10/10 15:54:06;;;;;;;16.48;3.60;;;29.30;79.80;;;;;;5092779;28;20419;-72
2023/10/10 15:56:32;;;;;;;20.30;3.20;;;29.20;80.20;;;;;;5074772;28;20468;-71
2023/10/10 15:58:58;;;;;;;20.85;3.45;;;29.20;79.10;;;;;;5092603;28;20051;-71
2023/10/10 16:01:28;;;;;;;17.05;3.10;;;29.20;80.10;;;;;;5074273;28;20024;-71
2023/10/10 16:04:00;;;;;;;15.30;3.40;;;29.00;79.00;;;;;;5092868;28;20118;-71
2023/10/10 16:06:28;;;;;;;26.45;3.58;;;28.90;78.30;;;;;;5093115;28;20067;-72
2023/10/10 16:08:57;;;;;;;10.77;2.80;;;28.90;78.60;;;;;;5092445;28;20030;-71